sensor_id;sensor_type;location;lat;lon;timestamp;P1;durP1;ratioP1;P2;durP2;ratioP2
38083;SDS011;23894;51.466;7.444;2024-01-15T00:01:37;29.75;;;20.20;;
38083;SDS011;23894;51.466;7.444;2024-01-15T00:03:37;30.17;;;20.52;;
38083;SDS011;23894;51.466;7.444;2024-01-15T00:05:39;29.98;;;20.30;;
38083;SDS011;23894;51.466;7.444;2024-01-15T00:07:40;31.90;;;21.08;;
38083;SDS011;23894;51.466;7.444;2024-01-15T00:09:41;29.17;;;20.48;;
38083;SDS011;23894;51.466;7.444;2024-01-15T00:11:42;30.95;;;21.15;;
38083;SDS011;23894;51.466;7.444;2024-01-15T00:13:43;31.83;;;22.07;;
38083;SDS011;23894;51.466;7.444;2024-01-15T00:15:44;30.87;;;21.03;;
38083;SDS011;23894;51.466;7.444;2024-01-15T00:17:45;32.27;;;22.20;;
38083;SDS011;23894;51.466;7.444;2024-01-15T00:19:46;32.67;;;21.55;;
38083;SDS011;23894;51.466;7.444;2024-01-15T00:21:47;33.50;;;22.55;;
38083;SDS011;23894;51.466;7.444;2024-01-15T00:23:48;33.90;;;22.73;;
38083;SDS011;23894;51.466;7.444;2024-01-15T00:25:50;34.50;;;22.58;;
38083;SDS011;23894;51.466;7.444;2024-01-15T00:27:51;33.08;;;23.80;;
38083;SDS011;23894;51.466;7.444;2024-01-15T00:29:52;33.72;;;23.25;;
38083;SDS011;23894;51.466;7.444;2024-01-15T00:31:54;33.97;;;23.15;;
38083;SDS011;23894;51.466;7.444;2024-01-15T00:33:55;36.25;;;23.17;;
38083;SDS011;23894;51.466;7.444;2024-01-15T00:35:57;31.90;;;22.25;;
38083;SDS011;23894;51.466;7.444;2024-01-15T00:37:58;36.15;;;23.35;;
38083;SDS011;23894;51.466;7.444;2024-01-15T00:39:59;35.88;;;24.20;;
38083;SDS011;23894;51.466;7.444;2024-01-15T00:42:00;34.83;;;23.08;;
38083;SDS011;23894;51.466;7.444;2024-01-15T00:44:01;33.70;;;22.77;;
38083;SDS011;23894;51.466;7.444;2024-01-15T00:46:03;33.67;;;23.13;;
38083;SDS011;23894;51.466;7.444;2024-01-15T00:48:04;36.45;;;23.67;;
38083;SDS011;23894;51.466;7.444;2024-01-15T00:50:05;34.60;;;23.40;;
38083;SDS011;23894;51.466;7.444;2024-01-15T00:52:06;36.78;;;22.92;;
38083;SDS011;23894;51.466;7.444;2024-01-15T00:54:07;36.00;;;23.65;;
38083;SDS011;23894;51.466;7.444;2024-01-15T00:56:08;35.92;;;23.25;;
38083;SDS011;23894;51.466;7.444;2024-01-15T00:58:09;35.30;;;24.17;;
38083;SDS011;23894;51.466;7.444;2024-01-15T01:00:10;33.67;;;23.88;;
38083;SDS011;23894;51.466;7.444;2024-01-15T01:02:11;37.38;;;24.38;;
38083;SDS011;23894;51.466;7.444;2024-01-15T01:04:12;36.00;;;24.42;;
38083;SDS011;23894;51.466;7.444;2024-01-15T01:06:13;38.53;;;24.13;;
38083;SDS011;23894;51.466;7.444;2024-01-15T01:08:14;37.97;;;24.58;;
38083;SDS011;23894;51.466;7.444;2024-01-15T01:10:15;35.33;;;24.30;;
38083;SDS011;23894;51.466;7.444;2024-01-15T01:12:17;39.78;;;24.30;;
38083;SDS011;23894;51.466;7.444;2024-01-15T01:14:17;36.58;;;24.63;;
38083;SDS011;23894;51.466;7.444;2024-01-15T01:16:18;37.53;;;24.50;;
38083;SDS011;23894;51.466;7.444;2024-01-15T01:18:19;38.63;;;24.48;;
38083;SDS011;23894;51.466;7.444;2024-01-15T01:20:20;32.90;;;24.02;;
38083;SDS011;23894;51.466;7.444;2024-01-15T01:22:21;39.15;;;25.42;;
38083;SDS011;23894;51.466;7.444;2024-01-15T01:24:22;34.50;;;23.92;;
38083;SDS011;23894;51.466;7.444;2024-01-15T01:26:23;34.75;;;24.40;;
38083;SDS011;23894;51.466;7.444;2024-01-15T01:28:24;40.92;;;25.55;;
38083;SDS011;23894;51.466;7.444;2024-01-15T01:30:25;38.00;;;24.00;;
38083;SDS011;23894;51.466;7.444;2024-01-15T01:32:26;34.42;;;23.73;;
38083;SDS011;23894;51.466;7.444;2024-01-15T01:34:27;35.88;;;24.65;;
38083;SDS011;23894;51.466;7.444;2024-01-15T01:36:28;39.00;;;24.30;;
38083;SDS011;23894;51.466;7.444;2024-01-15T01:38:29;37.83;;;24.42;;
38083;SDS011;23894;51.466;7.444;2024-01-15T01:40:30;36.53;;;23.77;;
38083;SDS011;23894;51.466;7.444;2024-01-15T01:42:31;37.45;;;23.30;;
38083;SDS011;23894;51.466;7.444;2024-01-15T01:44:32;35.83;;;23.73;;
38083;SDS011;23894;51.466;7.444;2024-01-15T01:46:33;33.85;;;23.38;;
38083;SDS011;23894;51.466;7.444;2024-01-15T01:48:34;37.03;;;24.15;;
38083;SDS011;23894;51.466;7.444;2024-01-15T01:50:36;37.10;;;24.05;;
38083;SDS011;23894;51.466;7.444;2024-01-15T01:52:37;37.90;;;25.10;;
38083;SDS011;23894;51.466;7.444;2024-01-15T01:54:38;34.58;;;23.83;;
38083;SDS011;23894;51.466;7.444;2024-01-15T01:56:41;33.40;;;22.40;;
38083;SDS011;23894;51.466;7.444;2024-01-15T01:58:42;33.80;;;22.83;;
38083;SDS011;23894;51.466;7.444;2024-01-15T02:00:43;34.50;;;23.30;;
38083;SDS011;23894;51.466;7.444;2024-01-15T02:02:44;35.17;;;22.75;;
38083;SDS011;23894;51.466;7.444;2024-01-15T02:04:46;33.83;;;22.47;;
38083;SDS011;23894;51.466;7.444;2024-01-15T02:06:48;31.58;;;22.10;;
38083;SDS011;23894;51.466;7.444;2024-01-15T02:08:49;36.38;;;22.38;;
38083;SDS011;23894;51.466;7.444;2024-01-15T02:10:50;28.83;;;21.60;;
38083;SDS011;23894;51.466;7.444;2024-01-15T02:12:51;32.83;;;22.07;;
38083;SDS011;23894;51.466;7.444;2024-01-15T02:14:52;33.60;;;22.10;;
38083;SDS011;23894;51.466;7.444;2024-01-15T02:16:53;31.10;;;21.33;;
38083;SDS011;23894;51.466;7.444;2024-01-15T02:18:54;31.15;;;22.00;;
38083;SDS011;23894;51.466;7.444;2024-01-15T02:20:55;34.72;;;21.15;;
38083;SDS011;23894;51.466;7.444;2024-01-15T02:23:12;33.78;;;21.77;;
38083;SDS011;23894;51.466;7.444;2024-01-15T02:25:13;29.55;;;20.67;;
38083;SDS011;23894;51.466;7.444;2024-01-15T02:27:14;28.92;;;19.88;;
38083;SDS011;23894;51.466;7.444;2024-01-15T02:29:15;30.20;;;20.88;;
38083;SDS011;23894;51.466;7.444;2024-01-15T02:31:16;30.45;;;20.58;;
38083;SDS011;23894;51.466;7.444;2024-01-15T02:33:17;30.47;;;21.30;;
38083;SDS011;23894;51.466;7.444;2024-01-15T02:35:18;33.13;;;21.20;;
38083;SDS011;23894;51.466;7.444;2024-01-15T02:37:19;32.00;;;20.93;;
38083;SDS011;23894;51.466;7.444;2024-01-15T02:39:20;36.25;;;21.30;;
38083;SDS011;23894;51.466;7.444;2024-01-15T02:41:21;31.88;;;21.70;;
38083;SDS011;23894;51.466;7.444;2024-01-15T02:43:22;31.23;;;21.03;;
38083;SDS011;23894;51.466;7.444;2024-01-15T02:45:23;30.63;;;20.40;;
38083;SDS011;23894;51.466;7.444;2024-01-15T02:47:24;31.85;;;20.85;;
38083;SDS011;23894;51.466;7.444;2024-01-15T02:49:25;30.33;;;21.30;;
38083;SDS011;23894;51.466;7.444;2024-01-15T02:51:26;30.73;;;20.83;;
38083;SDS011;23894;51.466;7.444;2024-01-15T02:53:27;33.10;;;21.83;;
38083;SDS011;23894;51.466;7.444;2024-01-15T02:55:28;31.97;;;20.93;;
38083;SDS011;23894;51.466;7.444;2024-01-15T02:57:29;31.90;;;20.80;;
38083;SDS011;23894;51.466;7.444;2024-01-15T02:59:30;32.37;;;21.03;;
38083;SDS011;23894;51.466;7.444;2024-01-15T03:01:31;30.00;;;20.00;;
38083;SDS011;23894;51.466;7.444;2024-01-15T03:03:32;30.35;;;20.63;;
38083;SDS011;23894;51.466;7.444;2024-01-15T03:05:33;31.53;;;20.33;;
38083;SDS011;23894;51.466;7.444;2024-01-15T03:07:34;31.73;;;20.43;;
38083;SDS011;23894;51.466;7.444;2024-01-15T03:09:35;32.47;;;21.33;;
38083;SDS011;23894;51.466;7.444;2024-01-15T03:11:39;27.93;;;19.87;;
38083;SDS011;23894;51.466;7.444;2024-01-15T03:13:40;29.07;;;19.20;;
38083;SDS011;23894;51.466;7.444;2024-01-15T03:15:41;33.40;;;21.37;;
38083;SDS011;23894;51.466;7.444;2024-01-15T03:17:42;30.40;;;20.30;;
38083;SDS011;23894;51.466;7.444;2024-01-15T03:19:43;30.38;;;19.77;;
38083;SDS011;23894;51.466;7.444;2024-01-15T03:21:44;29.30;;;19.63;;
38083;SDS011;23894;51.466;7.444;2024-01-15T03:23:45;29.52;;;19.45;;
38083;SDS011;23894;51.466;7.444;2024-01-15T03:25:45;30.83;;;19.98;;
38083;SDS011;23894;51.466;7.444;2024-01-15T03:27:46;31.10;;;19.75;;
38083;SDS011;23894;51.466;7.444;2024-01-15T03:29:47;26.90;;;18.38;;
38083;SDS011;23894;51.466;7.444;2024-01-15T03:31:48;26.63;;;17.65;;
38083;SDS011;23894;51.466;7.444;2024-01-15T03:33:49;29.88;;;19.15;;
38083;SDS011;23894;51.466;7.444;2024-01-15T03:35:50;27.45;;;18.50;;
38083;SDS011;23894;51.466;7.444;2024-01-15T03:37:51;29.05;;;18.95;;
38083;SDS011;23894;51.466;7.444;2024-01-15T03:39:52;27.30;;;18.50;;
38083;SDS011;23894;51.466;7.444;2024-01-15T03:41:53;29.90;;;19.15;;
38083;SDS011;23894;51.466;7.444;2024-01-15T03:43:54;30.95;;;19.25;;
38083;SDS011;23894;51.466;7.444;2024-01-15T03:45:55;31.20;;;19.67;;
38083;SDS011;23894;51.466;7.444;2024-01-15T03:47:56;30.50;;;18.80;;
38083;SDS011;23894;51.466;7.444;2024-01-15T03:49:57;27.00;;;17.80;;
38083;SDS011;23894;51.466;7.444;2024-01-15T03:51:58;29.38;;;18.15;;
38083;SDS011;23894;51.466;7.444;2024-01-15T03:53:59;29.25;;;19.25;;
38083;SDS011;23894;51.466;7.444;2024-01-15T03:56:00;25.55;;;18.25;;
38083;SDS011;23894;51.466;7.444;2024-01-15T03:58:01;28.10;;;18.38;;
38083;SDS011;23894;51.466;7.444;2024-01-15T04:00:02;28.93;;;18.93;;
38083;SDS011;23894;51.466;7.444;2024-01-15T04:02:04;26.92;;;19.10;;
38083;SDS011;23894;51.466;7.444;2024-01-15T04:04:05;25.52;;;18.45;;
38083;SDS011;23894;51.466;7.444;2024-01-15T04:06:06;23.97;;;17.47;;
38083;SDS011;23894;51.466;7.444;2024-01-15T04:08:07;28.25;;;18.50;;
38083;SDS011;23894;51.466;7.444;2024-01-15T04:10:08;28.45;;;17.67;;
38083;SDS011;23894;51.466;7.444;2024-01-15T04:12:09;26.77;;;16.73;;
38083;SDS011;23894;51.466;7.444;2024-01-15T04:14:10;27.35;;;17.27;;
38083;SDS011;23894;51.466;7.444;2024-01-15T04:16:11;23.00;;;17.13;;
38083;SDS011;23894;51.466;7.444;2024-01-15T04:18:12;26.03;;;17.23;;
38083;SDS011;23894;51.466;7.444;2024-01-15T04:20:13;24.93;;;16.47;;
38083;SDS011;23894;51.466;7.444;2024-01-15T04:22:13;23.50;;;16.10;;
38083;SDS011;23894;51.466;7.444;2024-01-15T04:24:14;22.45;;;15.38;;
38083;SDS011;23894;51.466;7.444;2024-01-15T04:26:17;24.85;;;15.57;;
38083;SDS011;23894;51.466;7.444;2024-01-15T04:28:18;24.00;;;15.47;;
38083;SDS011;23894;51.466;7.444;2024-01-15T04:30:19;22.75;;;14.90;;
38083;SDS011;23894;51.466;7.444;2024-01-15T04:32:20;20.02;;;14.52;;
38083;SDS011;23894;51.466;7.444;2024-01-15T04:34:21;22.25;;;14.65;;
38083;SDS011;23894;51.466;7.444;2024-01-15T04:36:22;23.00;;;15.38;;
38083;SDS011;23894;51.466;7.444;2024-01-15T04:38:23;24.17;;;14.80;;
38083;SDS011;23894;51.466;7.444;2024-01-15T04:40:24;24.15;;;14.73;;
38083;SDS011;23894;51.466;7.444;2024-01-15T04:42:27;20.95;;;14.10;;
38083;SDS011;23894;51.466;7.444;2024-01-15T04:44:28;20.33;;;13.52;;
38083;SDS011;23894;51.466;7.444;2024-01-15T04:46:29;24.02;;;14.32;;
38083;SDS011;23894;51.466;7.444;2024-01-15T04:48:30;21.00;;;13.63;;
38083;SDS011;23894;51.466;7.444;2024-01-15T04:50:31;23.65;;;14.48;;
38083;SDS011;23894;51.466;7.444;2024-01-15T04:52:32;21.40;;;13.50;;
38083;SDS011;23894;51.466;7.444;2024-01-15T04:54:33;24.30;;;14.07;;
38083;SDS011;23894;51.466;7.444;2024-01-15T04:56:34;26.52;;;13.85;;
38083;SDS011;23894;51.466;7.444;2024-01-15T04:58:35;22.83;;;14.32;;
38083;SDS011;23894;51.466;7.444;2024-01-15T05:00:36;21.00;;;14.05;;
38083;SDS011;23894;51.466;7.444;2024-01-15T05:02:37;20.90;;;14.00;;
38083;SDS011;23894;51.466;7.444;2024-01-15T05:04:38;24.48;;;14.40;;
38083;SDS011;23894;51.466;7.444;2024-01-15T05:06:39;19.77;;;13.23;;
38083;SDS011;23894;51.466;7.444;2024-01-15T05:08:40;23.77;;;13.95;;
38083;SDS011;23894;51.466;7.444;2024-01-15T05:10:41;22.50;;;13.90;;
38083;SDS011;23894;51.466;7.444;2024-01-15T05:12:42;20.02;;;13.88;;
38083;SDS011;23894;51.466;7.444;2024-01-15T05:14:43;22.07;;;14.23;;
38083;SDS011;23894;51.466;7.444;2024-01-15T05:16:47;19.53;;;13.47;;
38083;SDS011;23894;51.466;7.444;2024-01-15T05:18:49;22.55;;;13.70;;
38083;SDS011;23894;51.466;7.444;2024-01-15T05:20:50;21.27;;;13.57;;
38083;SDS011;23894;51.466;7.444;2024-01-15T05:22:52;19.98;;;13.52;;
38083;SDS011;23894;51.466;7.444;2024-01-15T05:24:53;20.95;;;13.07;;
38083;SDS011;23894;51.466;7.444;2024-01-15T05:26:54;21.58;;;13.45;;
38083;SDS011;23894;51.466;7.444;2024-01-15T05:28:55;20.55;;;13.63;;
38083;SDS011;23894;51.466;7.444;2024-01-15T05:30:56;20.13;;;14.07;;
38083;SDS011;23894;51.466;7.444;2024-01-15T05:32:57;22.58;;;13.93;;
38083;SDS011;23894;51.466;7.444;2024-01-15T05:35:00;24.80;;;13.23;;
38083;SDS011;23894;51.466;7.444;2024-01-15T05:37:01;20.98;;;14.15;;
38083;SDS011;23894;51.466;7.444;2024-01-15T05:39:01;22.20;;;13.65;;
38083;SDS011;23894;51.466;7.444;2024-01-15T05:41:03;21.23;;;14.88;;
38083;SDS011;23894;51.466;7.444;2024-01-15T05:43:04;18.52;;;13.32;;
38083;SDS011;23894;51.466;7.444;2024-01-15T05:45:05;20.60;;;14.48;;
38083;SDS011;23894;51.466;7.444;2024-01-15T05:47:06;18.75;;;13.82;;
38083;SDS011;23894;51.466;7.444;2024-01-15T05:49:07;22.40;;;14.40;;
38083;SDS011;23894;51.466;7.444;2024-01-15T05:51:08;19.02;;;13.98;;
38083;SDS011;23894;51.466;7.444;2024-01-15T05:53:09;21.73;;;14.27;;
38083;SDS011;23894;51.466;7.444;2024-01-15T05:55:10;20.05;;;14.52;;
38083;SDS011;23894;51.466;7.444;2024-01-15T05:57:11;20.08;;;13.75;;
38083;SDS011;23894;51.466;7.444;2024-01-15T05:59:12;22.58;;;14.15;;
38083;SDS011;23894;51.466;7.444;2024-01-15T06:01:12;20.38;;;13.75;;
38083;SDS011;23894;51.466;7.444;2024-01-15T06:03:13;21.05;;;14.18;;
38083;SDS011;23894;51.466;7.444;2024-01-15T06:05:14;20.98;;;13.85;;
38083;SDS011;23894;51.466;7.444;2024-01-15T06:07:15;19.65;;;13.48;;
38083;SDS011;23894;51.466;7.444;2024-01-15T06:09:16;20.52;;;13.48;;
38083;SDS011;23894;51.466;7.444;2024-01-15T06:11:17;20.45;;;13.60;;
38083;SDS011;23894;51.466;7.444;2024-01-15T06:13:18;18.55;;;12.98;;
38083;SDS011;23894;51.466;7.444;2024-01-15T06:15:19;19.55;;;13.60;;
38083;SDS011;23894;51.466;7.444;2024-01-15T06:17:20;19.60;;;13.10;;
38083;SDS011;23894;51.466;7.444;2024-01-15T06:19:21;17.80;;;12.98;;
38083;SDS011;23894;51.466;7.444;2024-01-15T06:21:22;20.05;;;12.93;;
38083;SDS011;23894;51.466;7.444;2024-01-15T06:23:23;21.98;;;14.00;;
38083;SDS011;23894;51.466;7.444;2024-01-15T06:25:24;18.30;;;13.02;;
38083;SDS011;23894;51.466;7.444;2024-01-15T06:27:25;20.60;;;12.80;;
38083;SDS011;23894;51.466;7.444;2024-01-15T06:29:26;19.07;;;13.43;;
38083;SDS011;23894;51.466;7.444;2024-01-15T06:31:27;19.70;;;13.02;;
38083;SDS011;23894;51.466;7.444;2024-01-15T06:33:28;18.30;;;13.45;;
38083;SDS011;23894;51.466;7.444;2024-01-15T06:35:29;21.45;;;13.43;;
38083;SDS011;23894;51.466;7.444;2024-01-15T06:37:30;17.83;;;12.90;;
38083;SDS011;23894;51.466;7.444;2024-01-15T06:39:32;17.88;;;12.95;;
38083;SDS011;23894;51.466;7.444;2024-01-15T06:41:33;17.60;;;12.52;;
38083;SDS011;23894;51.466;7.444;2024-01-15T06:43:34;19.20;;;12.68;;
38083;SDS011;23894;51.466;7.444;2024-01-15T06:45:35;20.15;;;12.52;;
38083;SDS011;23894;51.466;7.444;2024-01-15T06:47:36;18.67;;;12.20;;
38083;SDS011;23894;51.466;7.444;2024-01-15T06:49:37;17.70;;;11.70;;
38083;SDS011;23894;51.466;7.444;2024-01-15T06:51:38;21.17;;;12.88;;
38083;SDS011;23894;51.466;7.444;2024-01-15T06:53:39;21.23;;;12.93;;
38083;SDS011;23894;51.466;7.444;2024-01-15T06:55:40;19.52;;;12.25;;
38083;SDS011;23894;51.466;7.444;2024-01-15T06:57:41;17.73;;;12.65;;
38083;SDS011;23894;51.466;7.444;2024-01-15T06:59:42;20.37;;;13.67;;
38083;SDS011;23894;51.466;7.444;2024-01-15T07:01:44;18.65;;;13.00;;
38083;SDS011;23894;51.466;7.444;2024-01-15T07:03:45;19.85;;;13.00;;
38083;SDS011;23894;51.466;7.444;2024-01-15T07:05:46;20.75;;;13.32;;
38083;SDS011;23894;51.466;7.444;2024-01-15T07:07:46;19.63;;;13.02;;
38083;SDS011;23894;51.466;7.444;2024-01-15T07:09:47;17.93;;;12.67;;
38083;SDS011;23894;51.466;7.444;2024-01-15T07:11:48;18.97;;;13.53;;
38083;SDS011;23894;51.466;7.444;2024-01-15T07:13:49;20.33;;;13.73;;
38083;SDS011;23894;51.466;7.444;2024-01-15T07:15:50;19.40;;;13.13;;
38083;SDS011;23894;51.466;7.444;2024-01-15T07:17:51;19.92;;;14.07;;
38083;SDS011;23894;51.466;7.444;2024-01-15T07:19:52;19.80;;;13.32;;
38083;SDS011;23894;51.466;7.444;2024-01-15T07:21:53;18.63;;;13.18;;
38083;SDS011;23894;51.466;7.444;2024-01-15T07:23:54;17.95;;;12.88;;
38083;SDS011;23894;51.466;7.444;2024-01-15T07:25:55;17.92;;;12.75;;
38083;SDS011;23894;51.466;7.444;2024-01-15T07:27:56;16.83;;;12.10;;
38083;SDS011;23894;51.466;7.444;2024-01-15T07:29:57;16.58;;;12.68;;
38083;SDS011;23894;51.466;7.444;2024-01-15T07:31:58;24.38;;;16.27;;
38083;SDS011;23894;51.466;7.444;2024-01-15T07:33:59;16.52;;;12.93;;
38083;SDS011;23894;51.466;7.444;2024-01-15T07:36:00;19.65;;;12.20;;
38083;SDS011;23894;51.466;7.444;2024-01-15T07:38:02;17.48;;;11.98;;
38083;SDS011;23894;51.466;7.444;2024-01-15T07:40:04;17.10;;;11.95;;
38083;SDS011;23894;51.466;7.444;2024-01-15T07:42:06;15.32;;;11.00;;
38083;SDS011;23894;51.466;7.444;2024-01-15T07:44:07;14.32;;;10.73;;
38083;SDS011;23894;51.466;7.444;2024-01-15T07:46:08;15.80;;;11.60;;
38083;SDS011;23894;51.466;7.444;2024-01-15T07:48:09;15.25;;;12.02;;
38083;SDS011;23894;51.466;7.444;2024-01-15T07:50:10;14.52;;;10.05;;
38083;SDS011;23894;51.466;7.444;2024-01-15T07:52:11;13.45;;;9.40;;
38083;SDS011;23894;51.466;7.444;2024-01-15T07:54:13;13.70;;;9.40;;
38083;SDS011;23894;51.466;7.444;2024-01-15T07:56:14;12.00;;;8.65;;
38083;SDS011;23894;51.466;7.444;2024-01-15T07:58:15;13.13;;;8.77;;
38083;SDS011;23894;51.466;7.444;2024-01-15T08:00:16;13.63;;;9.27;;
38083;SDS011;23894;51.466;7.444;2024-01-15T08:02:17;12.65;;;9.10;;
38083;SDS011;23894;51.466;7.444;2024-01-15T08:04:19;10.40;;;7.95;;
38083;SDS011;23894;51.466;7.444;2024-01-15T08:06:20;13.90;;;8.70;;
38083;SDS011;23894;51.466;7.444;2024-01-15T08:08:21;11.23;;;7.70;;
38083;SDS011;23894;51.466;7.444;2024-01-15T08:10:23;10.00;;;7.30;;
38083;SDS011;23894;51.466;7.444;2024-01-15T08:12:24;11.93;;;7.28;;
38083;SDS011;23894;51.466;7.444;2024-01-15T08:14:25;10.88;;;6.88;;
38083;SDS011;23894;51.466;7.444;2024-01-15T08:16:26;11.48;;;6.78;;
38083;SDS011;23894;51.466;7.444;2024-01-15T08:18:27;10.03;;;6.73;;
38083;SDS011;23894;51.466;7.444;2024-01-15T08:20:28;10.40;;;7.40;;
38083;SDS011;23894;51.466;7.444;2024-01-15T08:22:29;9.45;;;6.15;;
38083;SDS011;23894;51.466;7.444;2024-01-15T08:24:30;9.90;;;6.85;;
38083;SDS011;23894;51.466;7.444;2024-01-15T08:26:31;10.60;;;7.10;;
38083;SDS011;23894;51.466;7.444;2024-01-15T08:28:32;12.90;;;8.77;;
38083;SDS011;23894;51.466;7.444;2024-01-15T08:30:33;12.27;;;9.48;;
38083;SDS011;23894;51.466;7.444;2024-01-15T08:32:34;14.60;;;10.15;;
38083;SDS011;23894;51.466;7.444;2024-01-15T08:34:40;13.43;;;10.25;;
38083;SDS011;23894;51.466;7.444;2024-01-15T08:36:46;14.43;;;11.02;;
38083;SDS011;23894;51.466;7.444;2024-01-15T08:38:47;14.70;;;11.15;;
38083;SDS011;23894;51.466;7.444;2024-01-15T08:40:49;14.88;;;10.98;;
38083;SDS011;23894;51.466;7.444;2024-01-15T08:42:51;14.63;;;10.83;;
38083;SDS011;23894;51.466;7.444;2024-01-15T08:44:52;12.23;;;10.70;;
38083;SDS011;23894;51.466;7.444;2024-01-15T08:46:52;15.23;;;10.70;;
38083;SDS011;23894;51.466;7.444;2024-01-15T08:48:53;13.48;;;10.13;;
38083;SDS011;23894;51.466;7.444;2024-01-15T08:50:55;14.02;;;10.25;;
38083;SDS011;23894;51.466;7.444;2024-01-15T08:52:56;12.18;;;9.25;;
38083;SDS011;23894;51.466;7.444;2024-01-15T08:54:57;12.13;;;9.02;;
38083;SDS011;23894;51.466;7.444;2024-01-15T08:56:58;11.07;;;9.02;;
38083;SDS011;23894;51.466;7.444;2024-01-15T08:58:59;13.13;;;8.90;;
38083;SDS011;23894;51.466;7.444;2024-01-15T09:01:00;12.30;;;8.75;;
38083;SDS011;23894;51.466;7.444;2024-01-15T09:03:02;11.02;;;8.73;;
38083;SDS011;23894;51.466;7.444;2024-01-15T09:05:03;11.95;;;9.05;;
38083;SDS011;23894;51.466;7.444;2024-01-15T09:07:04;13.18;;;9.23;;
38083;SDS011;23894;51.466;7.444;2024-01-15T09:09:05;10.85;;;8.80;;
38083;SDS011;23894;51.466;7.444;2024-01-15T09:11:06;11.88;;;9.50;;
38083;SDS011;23894;51.466;7.444;2024-01-15T09:13:07;13.60;;;10.00;;
38083;SDS011;23894;51.466;7.444;2024-01-15T09:15:08;11.57;;;9.15;;
38083;SDS011;23894;51.466;7.444;2024-01-15T09:17:09;11.25;;;9.05;;
38083;SDS011;23894;51.466;7.444;2024-01-15T09:19:10;12.43;;;9.15;;
38083;SDS011;23894;51.466;7.444;2024-01-15T09:21:11;11.88;;;9.35;;
38083;SDS011;23894;51.466;7.444;2024-01-15T09:23:12;11.85;;;9.77;;
38083;SDS011;23894;51.466;7.444;2024-01-15T09:25:13;12.20;;;9.55;;
38083;SDS011;23894;51.466;7.444;2024-01-15T09:27:14;12.05;;;9.98;;
38083;SDS011;23894;51.466;7.444;2024-01-15T09:29:15;12.90;;;10.02;;
38083;SDS011;23894;51.466;7.444;2024-01-15T09:31:16;13.05;;;10.02;;
38083;SDS011;23894;51.466;7.444;2024-01-15T09:33:19;11.63;;;10.17;;
38083;SDS011;23894;51.466;7.444;2024-01-15T09:35:20;12.53;;;9.97;;
38083;SDS011;23894;51.466;7.444;2024-01-15T09:37:21;13.53;;;10.50;;
38083;SDS011;23894;51.466;7.444;2024-01-15T09:39:23;13.10;;;10.47;;
38083;SDS011;23894;51.466;7.444;2024-01-15T09:41:24;13.65;;;10.95;;
38083;SDS011;23894;51.466;7.444;2024-01-15T09:43:25;13.35;;;10.43;;
38083;SDS011;23894;51.466;7.444;2024-01-15T09:45:27;14.43;;;10.30;;
38083;SDS011;23894;51.466;7.444;2024-01-15T09:47:28;11.95;;;9.88;;
38083;SDS011;23894;51.466;7.444;2024-01-15T09:49:28;12.13;;;9.68;;
38083;SDS011;23894;51.466;7.444;2024-01-15T09:51:31;11.27;;;9.55;;
38083;SDS011;23894;51.466;7.444;2024-01-15T09:53:32;14.65;;;10.13;;
38083;SDS011;23894;51.466;7.444;2024-01-15T09:55:33;13.98;;;10.05;;
38083;SDS011;23894;51.466;7.444;2024-01-15T09:57:34;13.65;;;8.95;;
38083;SDS011;23894;51.466;7.444;2024-01-15T09:59:35;12.20;;;9.40;;
38083;SDS011;23894;51.466;7.444;2024-01-15T10:01:37;12.45;;;9.43;;
38083;SDS011;23894;51.466;7.444;2024-01-15T10:03:38;12.77;;;9.18;;
38083;SDS011;23894;51.466;7.444;2024-01-15T10:05:40;11.50;;;8.38;;
38083;SDS011;23894;51.466;7.444;2024-01-15T10:07:41;10.50;;;7.20;;
38083;SDS011;23894;51.466;7.444;2024-01-15T10:09:42;10.05;;;7.55;;
38083;SDS011;23894;51.466;7.444;2024-01-15T10:11:44;12.80;;;7.68;;
38083;SDS011;23894;51.466;7.444;2024-01-15T10:13:45;10.32;;;7.55;;
38083;SDS011;23894;51.466;7.444;2024-01-15T10:15:46;9.20;;;7.28;;
38083;SDS011;23894;51.466;7.444;2024-01-15T10:17:47;9.23;;;7.50;;
38083;SDS011;23894;51.466;7.444;2024-01-15T10:19:48;10.68;;;7.03;;
38083;SDS011;23894;51.466;7.444;2024-01-15T10:21:49;9.10;;;6.43;;
38083;SDS011;23894;51.466;7.444;2024-01-15T10:23:50;8.00;;;6.43;;
38083;SDS011;23894;51.466;7.444;2024-01-15T10:25:51;9.48;;;6.43;;
38083;SDS011;23894;51.466;7.444;2024-01-15T10:27:59;9.85;;;7.35;;
38083;SDS011;23894;51.466;7.444;2024-01-15T10:30:00;10.68;;;7.40;;
38083;SDS011;23894;51.466;7.444;2024-01-15T10:32:02;10.50;;;7.45;;
38083;SDS011;23894;51.466;7.444;2024-01-15T10:34:09;9.65;;;7.60;;
38083;SDS011;23894;51.466;7.444;2024-01-15T10:36:12;10.40;;;7.53;;
38083;SDS011;23894;51.466;7.444;2024-01-15T10:38:13;11.20;;;7.67;;
38083;SDS011;23894;51.466;7.444;2024-01-15T10:40:14;9.52;;;7.10;;
38083;SDS011;23894;51.466;7.444;2024-01-15T10:42:15;11.30;;;8.05;;
38083;SDS011;23894;51.466;7.444;2024-01-15T10:44:17;9.07;;;7.15;;
38083;SDS011;23894;51.466;7.444;2024-01-15T10:46:19;9.00;;;6.93;;
38083;SDS011;23894;51.466;7.444;2024-01-15T10:48:20;10.32;;;7.38;;
38083;SDS011;23894;51.466;7.444;2024-01-15T10:50:21;10.02;;;7.47;;
38083;SDS011;23894;51.466;7.444;2024-01-15T10:52:22;10.55;;;7.88;;
38083;SDS011;23894;51.466;7.444;2024-01-15T10:54:23;10.03;;;7.30;;
38083;SDS011;23894;51.466;7.444;2024-01-15T10:56:24;10.40;;;7.87;;
38083;SDS011;23894;51.466;7.444;2024-01-15T10:58:26;11.15;;;8.43;;
38083;SDS011;23894;51.466;7.444;2024-01-15T11:00:29;10.95;;;8.10;;
38083;SDS011;23894;51.466;7.444;2024-01-15T11:02:30;10.43;;;7.32;;
38083;SDS011;23894;51.466;7.444;2024-01-15T11:04:31;9.07;;;7.00;;
38083;SDS011;23894;51.466;7.444;2024-01-15T11:06:45;9.15;;;6.93;;
38083;SDS011;23894;51.466;7.444;2024-01-15T11:08:49;11.80;;;7.93;;
38083;SDS011;23894;51.466;7.444;2024-01-15T11:10:51;11.55;;;7.60;;
38083;SDS011;23894;51.466;7.444;2024-01-15T11:12:52;10.18;;;7.03;;
38083;SDS011;23894;51.466;7.444;2024-01-15T11:15:00;10.32;;;7.20;;
38083;SDS011;23894;51.466;7.444;2024-01-15T11:17:01;9.05;;;6.55;;
38083;SDS011;23894;51.466;7.444;2024-01-15T11:19:02;8.90;;;6.47;;
38083;SDS011;23894;51.466;7.444;2024-01-15T11:23:41;12.30;;;6.88;;
38083;SDS011;23894;51.466;7.444;2024-01-15T11:25:37;11.65;;;6.47;;
38083;SDS011;23894;51.466;7.444;2024-01-15T11:29:41;8.30;;;6.18;;
38083;SDS011;23894;51.466;7.444;2024-01-15T11:33:49;9.68;;;6.20;;
38083;SDS011;23894;51.466;7.444;2024-01-15T11:35:50;9.50;;;6.25;;
38083;SDS011;23894;51.466;7.444;2024-01-15T11:40:00;9.38;;;6.13;;
38083;SDS011;23894;51.466;7.444;2024-01-15T11:42:03;11.65;;;6.97;;
38083;SDS011;23894;51.466;7.444;2024-01-15T11:44:04;11.02;;;6.93;;
38083;SDS011;23894;51.466;7.444;2024-01-15T11:46:06;9.43;;;6.97;;
38083;SDS011;23894;51.466;7.444;2024-01-15T11:50:12;9.85;;;6.40;;
38083;SDS011;23894;51.466;7.444;2024-01-15T11:52:14;10.20;;;6.10;;
38083;SDS011;23894;51.466;7.444;2024-01-15T11:54:17;11.82;;;6.40;;
38083;SDS011;23894;51.466;7.444;2024-01-15T11:56:18;10.40;;;6.45;;
38083;SDS011;23894;51.466;7.444;2024-01-15T11:58:22;10.00;;;6.00;;
38083;SDS011;23894;51.466;7.444;2024-01-15T12:00:23;9.43;;;6.38;;
38083;SDS011;23894;51.466;7.444;2024-01-15T12:02:24;9.95;;;5.72;;
38083;SDS011;23894;51.466;7.444;2024-01-15T12:04:25;10.07;;;5.72;;